createdAt,value
2022-12-19T00:00:46.879Z,102322.53
2022-12-19T00:03:13.492Z,102332.66
2022-12-19T00:05:39.908Z,102342.66
2022-12-19T00:08:17.150Z,102328.28
2022-12-19T00:10:44.041Z,102325.53
2022-12-19T00:13:10.382Z,102324.78
2022-12-19T00:15:36.725Z,102315.56
2022-12-19T00:18:03.061Z,102299.06
2022-12-19T00:20:29.390Z,102304.81
2022-12-19T00:22:55.697Z,102309.81
2022-12-19T00:25:22.031Z,102293.94
2022-12-19T00:27:48.349Z,102301.19
2022-12-19T00:30:14.665Z,102296.06
2022-12-19T00:32:41.264Z,102283.81
2022-12-19T00:35:07.645Z,102285.19
2022-12-19T00:37:33.960Z,102274.44
2022-12-19T00:40:00.276Z,102271.56
2022-12-19T00:42:26.594Z,102257.19
2022-12-19T00:44:52.920Z,102255.81
2022-12-19T00:47:19.257Z,102260.81
2022-12-19T00:49:45.572Z,102261.56
2022-12-19T00:52:16.481Z,102260.81
2022-12-19T00:54:42.849Z,102243.56
2022-12-19T00:57:09.190Z,102259.31
2022-12-19T00:59:35.673Z,102257.78
2022-12-19T01:02:02.122Z,102237.69
2022-12-19T01:04:31.234Z,102229.06
2022-12-19T01:07:01.552Z,102240.56
2022-12-19T01:09:30.871Z,102231.94
2022-12-19T01:12:15.878Z,102219.09
2022-12-19T01:14:42.195Z,102226.34
2022-12-19T01:17:08.511Z,102225.75
2022-12-19T01:19:37.809Z,102207.72
2022-12-19T01:22:08.733Z,102193.34
2022-12-19T01:24:35.196Z,102197.59
2022-12-19T01:27:01.549Z,102206.22
2022-12-19T01:29:27.917Z,102198.34
2022-12-19T01:31:54.264Z,102197.59
2022-12-19T01:34:20.602Z,102203.19
2022-12-19T01:36:47.133Z,102198.34
2022-12-19T01:39:13.453Z,102177.63
2022-12-19T01:41:39.773Z,102194.88
2022-12-19T01:44:07.686Z,102182.00
2022-12-19T01:46:47.629Z,102181.25
2022-12-19T01:49:25.224Z,102171.16
2022-12-19T01:51:51.890Z,102170.38
2022-12-19T01:54:19.951Z,102166.00
2022-12-19T01:56:47.317Z,102159.50
2022-12-19T01:59:14.414Z,102155.88
2022-12-19T02:01:51.723Z,102145.88
2022-12-19T02:04:24.136Z,102151.63
2022-12-19T02:06:51.877Z,102147.38
2022-12-19T02:09:23.676Z,102141.63
2022-12-19T02:11:50.889Z,102138.00
2022-12-19T02:14:17.268Z,102135.88
2022-12-19T02:16:46.668Z,102143.16
2022-12-19T02:19:23.691Z,102130.13
2022-12-19T02:22:08.929Z,102132.25
2022-12-19T02:24:44.324Z,102132.91
2022-12-19T02:27:18.823Z,102127.16
2022-12-19T02:29:50.373Z,102128.63
2022-12-19T02:32:20.646Z,102112.16
2022-12-19T02:44:02.053Z,102125.16
2022-12-19T02:46:33.794Z,102112.16
2022-12-19T02:49:00.588Z,102121.41
2022-12-19T02:51:27.051Z,102115.66
2022-12-19T02:53:53.447Z,102112.00
2022-12-19T02:56:38.669Z,102117.00
2022-12-19T02:59:08.215Z,102107.03
2022-12-19T03:01:48.582Z,102104.91
2022-12-19T03:04:16.964Z,102102.19
2022-12-19T03:06:53.189Z,102098.53
2022-12-19T03:09:40.874Z,102111.41
2022-12-19T03:12:09.892Z,102090.69
2022-12-19T03:14:39.260Z,102104.16
2022-12-19T03:17:06.860Z,102102.63
2022-12-19T03:19:33.698Z,102102.63
2022-12-19T03:22:00.034Z,102094.03
2022-12-19T03:24:26.370Z,102090.41
2022-12-19T03:26:58.472Z,102095.53
2022-12-19T03:29:29.534Z,102089.78
2022-12-19T03:31:56.349Z,102081.19
2022-12-19T03:34:24.959Z,102078.41
2022-12-19T03:36:55.351Z,102088.41
2022-12-19T03:39:21.676Z,102092.66
2022-12-19T03:42:06.789Z,102075.44
2022-12-19T03:44:33.645Z,102073.91
2022-12-19T03:47:10.189Z,102073.91
2022-12-19T03:49:37.257Z,102068.31
2022-12-19T03:52:21.774Z,102064.69
2022-12-19T03:55:08.292Z,102071.19
2022-12-19T03:57:40.102Z,102072.66
2022-12-19T04:00:07.393Z,102074.94
2022-12-19T04:02:39.783Z,102069.94
2022-12-19T04:05:07.534Z,102072.94
2022-12-19T04:07:33.847Z,102070.09
2022-12-19T04:10:01.669Z,102050.72
2022-12-19T04:12:29.587Z,102048.47
2022-12-19T04:14:55.916Z,102058.72
2022-12-19T04:17:41.225Z,102068.72
2022-12-19T04:20:17.217Z,102068.72
2022-12-19T04:22:51.117Z,102067.22
2022-12-19T04:25:19.528Z,102072.94
2022-12-19T04:27:48.230Z,102070.81
2022-12-19T04:30:15.145Z,102078.69
2022-12-19T04:32:41.461Z,102080.22
2022-12-19T04:35:10.512Z,102080.22
2022-12-19T04:37:36.840Z,102072.94
2022-12-19T04:40:03.792Z,102069.94
2022-12-19T04:42:30.155Z,102065.72
2022-12-19T04:44:56.481Z,102065.72
2022-12-19T04:47:22.957Z,102059.97
2022-12-19T04:49:49.296Z,102060.72
2022-12-19T04:52:15.625Z,102052.84
2022-12-19T04:54:41.969Z,102047.84
2022-12-19T04:57:08.289Z,102045.75
2022-12-19T04:59:34.615Z,102047.22
2022-12-19T05:02:01.071Z,102045.88
2022-12-19T05:04:27.456Z,102043.00
2022-12-19T05:06:53.831Z,102041.63
2022-12-19T05:09:20.187Z,102041.63
2022-12-19T05:11:46.514Z,102043.00
2022-12-19T05:14:12.836Z,102044.34
2022-12-19T05:16:39.170Z,102050.09
2022-12-19T05:19:05.493Z,102041.47
2022-12-19T05:21:31.863Z,102038.63
2022-12-19T05:23:58.184Z,102047.22
2022-12-19T05:26:24.515Z,102035.75
2022-12-19T05:28:50.827Z,102028.50
2022-12-19T05:31:17.939Z,102035.75
2022-12-19T05:33:44.289Z,102034.25
2022-12-19T05:36:10.848Z,102027.72
2022-12-19T05:38:37.150Z,102023.97
2022-12-19T05:41:07.078Z,102014.00
2022-12-19T05:43:33.382Z,102018.22
2022-12-19T05:45:59.911Z,102021.22
2022-12-19T05:48:26.240Z,102006.88
2022-12-19T05:50:52.570Z,102011.25
2022-12-19T05:53:24.549Z,102000.50
2022-12-19T05:55:52.277Z,101997.03
2022-12-19T05:58:18.583Z,102002.78
2022-12-19T06:00:44.921Z,101995.66
2022-12-19T06:03:11.301Z,101992.94
2022-12-19T06:05:38.245Z,101997.13
2022-12-19T06:08:04.623Z,101984.31
2022-12-19T06:10:31.013Z,101972.06
2022-12-19T06:12:57.353Z,101969.03
2022-12-19T06:15:23.686Z,101961.16
2022-12-19T06:17:52.647Z,101966.91
2022-12-19T06:20:18.977Z,101938.91
2022-12-19T06:22:45.290Z,101953.28
2022-12-19T06:25:11.614Z,101952.53
2022-12-19T06:27:40.861Z,101946.78
2022-12-19T06:30:07.359Z,101942.53
2022-12-19T06:32:38.068Z,101931.03
2022-12-19T06:35:05.166Z,101940.63
2022-12-19T06:37:31.590Z,101941.63
2022-12-19T06:39:57.946Z,101955.84
2022-12-19T06:42:26.988Z,101949.13
2022-12-19T06:45:12.293Z,101947.63
2022-12-19T06:47:41.377Z,101951.16
2022-12-19T06:50:07.761Z,101956.91
2022-12-19T06:52:34.101Z,101955.91
2022-12-19T06:55:00.537Z,101948.16
2022-12-19T06:57:26.880Z,101958.66
2022-12-19T06:59:53.197Z,101959.13
2022-12-19T07:02:27.283Z,101969.88
2022-12-19T07:04:57.886Z,101965.63
2022-12-19T07:07:27.570Z,101956.38
2022-12-19T07:09:56.600Z,101960.78
2022-12-19T07:12:22.917Z,101960.91
2022-12-19T07:14:53.355Z,101956.66
2022-12-19T07:17:19.978Z,101958.16
2022-12-19T07:19:46.469Z,101946.78
2022-12-19T07:22:12.830Z,101948.44
2022-12-19T07:24:39.153Z,101945.50
2022-12-19T07:27:08.707Z,101942.31
2022-12-19T07:29:35.035Z,101936.44
2022-12-19T07:32:29.669Z,101938.31
2022-12-19T07:34:56.142Z,101936.44
2022-12-19T07:37:22.601Z,101948.84
2022-12-19T07:39:48.930Z,101945.50
2022-12-19T07:42:15.323Z,101947.63
2022-12-19T07:44:41.663Z,101947.25
2022-12-19T07:47:09.631Z,101930.50
2022-12-19T07:49:35.975Z,101925.63
2022-12-19T07:52:04.984Z,101924.97
2022-12-19T07:54:31.380Z,101922.34
2022-12-19T07:57:01.030Z,101917.13
2022-12-19T07:59:31.212Z,101932.38
2022-12-19T08:01:59.839Z,101923.75
2022-12-19T08:04:26.311Z,101928.09
2022-12-19T08:06:52.692Z,101927.09
2022-12-19T08:09:28.783Z,101925.22
2022-12-19T08:11:55.201Z,101928.25
2022-12-19T08:14:21.517Z,101920.34
2022-12-19T08:17:18.694Z,101922.34
2022-12-19T08:19:34.254Z,101915.34
2022-12-19T08:22:00.618Z,101904.31
2022-12-19T08:24:26.946Z,101911.81
2022-12-19T08:26:53.310Z,101908.06
2022-12-19T08:29:19.627Z,101920.84
2022-12-19T08:31:45.970Z,101913.59
2022-12-19T08:34:12.324Z,101928.22
2022-12-19T08:36:39.444Z,101906.06
2022-12-19T08:39:06.041Z,101911.31
2022-12-19T08:41:32.472Z,101908.56
2022-12-19T08:43:58.797Z,101898.03
2022-12-19T08:46:26.037Z,101891.53
2022-12-19T08:49:04.637Z,101881.38
2022-12-19T08:51:31.059Z,101868.81
2022-12-19T08:53:58.223Z,101862.97
2022-12-19T08:56:27.903Z,101867.44
2022-12-19T08:58:55.959Z,101868.72
2022-12-19T09:01:23.914Z,101851.44
2022-12-19T09:04:34.800Z,101861.44
2022-12-19T09:06:36.864Z,101856.44
2022-12-19T09:09:03.862Z,101858.69
2022-12-19T09:11:30.226Z,101860.19
2022-12-19T09:14:03.090Z,101849.41
2022-12-19T09:16:29.571Z,101850.16
2022-12-19T09:18:56.937Z,101841.88
2022-12-19T09:21:23.395Z,101841.88
2022-12-19T09:23:50.263Z,101836.00
2022-12-19T09:26:16.744Z,101832.34
2022-12-19T09:28:43.834Z,101830.88
2022-12-19T09:31:10.917Z,101823.84
2022-12-19T09:33:43.100Z,101826.84
2022-12-19T09:36:11.883Z,101824.59
2022-12-19T09:38:45.336Z,101820.22
2022-12-19T09:41:20.700Z,101816.88
2022-12-19T09:44:05.864Z,101805.22
2022-12-19T09:46:32.210Z,101795.25
2022-12-19T09:48:58.579Z,101781.94
2022-12-19T09:51:32.891Z,101783.72
2022-12-19T09:54:05.243Z,101781.69
2022-12-19T09:56:34.003Z,101773.94
2022-12-19T09:59:34.272Z,101773.31
2022-12-19T10:02:18.552Z,101766.91
2022-12-19T10:04:47.879Z,101774.19
2022-12-19T10:07:34.291Z,101766.91
2022-12-19T10:12:39.022Z,101758.28
2022-12-19T10:13:11.050Z,101758.16
2022-12-19T10:16:00.222Z,101756.66
2022-12-19T10:18:48.455Z,101753.41
2022-12-19T10:21:36.982Z,101741.88
2022-12-19T10:24:17.459Z,101754.88
2022-12-19T10:26:48.226Z,101741.19
2022-12-19T10:29:35.346Z,101746.78
2022-12-19T10:32:11.006Z,101726.97
2022-12-19T10:34:41.417Z,101734.47
2022-12-19T10:37:43.867Z,101725.94
2022-12-19T10:40:28.905Z,101714.53
2022-12-19T10:42:57.316Z,101709.63
2022-12-19T10:45:25.353Z,101709.00
2022-12-19T10:47:54.687Z,101704.75
2022-12-19T10:50:21.767Z,101702.50
2022-12-19T10:52:56.746Z,101692.59
2022-12-19T10:55:26.658Z,101683.44
2022-12-19T10:57:53.007Z,101677.75
2022-12-19T11:00:20.055Z,101680.75
2022-12-19T11:02:49.887Z,101676.50
2022-12-19T11:05:24.193Z,101673.63
2022-12-19T11:08:00.496Z,101673.09
2022-12-19T11:11:30.413Z,101674.00
2022-12-19T11:19:19.790Z,101661.06
2022-12-19T11:22:46.948Z,101656.91
2022-12-19T11:29:16.787Z,101656.16
2022-12-19T11:29:27.450Z,101654.03
2022-12-19T11:29:43.950Z,101656.22
2022-12-19T11:30:47.441Z,101655.56
2022-12-19T11:33:14.006Z,101655.66
2022-12-19T11:35:50.182Z,101655.94
2022-12-19T11:38:17.665Z,101653.53
2022-12-19T11:41:06.338Z,101654.06
2022-12-19T11:43:52.196Z,101647.34
2022-12-19T11:46:36.806Z,101634.22
2022-12-19T11:49:10.030Z,101643.06
2022-12-19T11:51:44.449Z,101631.19
2022-12-19T11:54:18.924Z,101626.75
2022-12-19T11:56:45.286Z,101622.03
2022-12-19T11:59:21.943Z,101613.50
2022-12-19T12:02:06.919Z,101610.63
2022-12-19T12:04:38.114Z,101612.09
2022-12-19T12:07:11.812Z,101612.09
2022-12-19T12:13:45.653Z,101599.94
2022-12-19T12:21:18.688Z,101612.84
2022-12-19T12:26:33.480Z,101602.94
2022-12-19T12:31:09.041Z,101600.91
2022-12-19T12:31:09.680Z,101606.78
2022-12-19T12:31:52.362Z,101614.25
2022-12-19T12:31:56.860Z,101605.59
2022-12-19T12:32:06.756Z,101603.25
2022-12-19T12:35:42.374Z,101597.47
2022-12-19T12:37:51.059Z,101598.13
2022-12-19T12:39:18.331Z,101601.13
2022-12-19T12:42:03.761Z,101586.47
2022-12-19T12:44:35.441Z,101577.72
2022-12-19T12:47:06.600Z,101582.75
2022-12-19T12:49:38.989Z,101582.09
2022-12-19T12:52:06.861Z,101570.13
2022-12-19T12:54:34.103Z,101576.66
2022-12-19T12:57:00.821Z,101577.16
2022-12-19T12:59:27.867Z,101567.88
2022-12-19T13:01:55.052Z,101557.84
2022-12-19T13:04:25.362Z,101559.22
2022-12-19T13:06:51.617Z,101554.41
2022-12-19T13:09:17.847Z,101547.31
2022-12-19T13:12:06.548Z,101540.63
2022-12-19T13:14:35.696Z,101542.41
2022-12-19T13:17:02.615Z,101532.97
2022-12-19T13:19:29.652Z,101541.56
2022-12-19T13:22:05.090Z,101540.78
2022-12-19T13:24:37.845Z,101543.03
2022-12-19T13:27:04.247Z,101533.19
2022-12-19T13:29:32.145Z,101534.03
2022-12-19T13:32:11.320Z,101536.66
2022-12-19T13:34:37.688Z,101527.78
2022-12-19T13:39:54.511Z,101542.97
2022-12-19T13:40:10.896Z,101534.31
2022-12-19T13:43:10.774Z,101534.19
2022-12-19T13:45:37.953Z,101522.94
2022-12-19T13:48:05.734Z,101522.03
2022-12-19T13:50:36.249Z,101520.97
2022-12-19T13:53:02.762Z,101526.41
2022-12-19T13:55:29.578Z,101513.28
2022-12-19T13:57:58.858Z,101507.38
2022-12-19T14:00:46.334Z,101513.13
2022-12-19T14:03:16.178Z,101510.66
2022-12-19T14:06:17.015Z,101500.66
2022-12-19T14:08:29.064Z,101512.69
2022-12-19T14:11:36.817Z,101501.06
2022-12-19T14:14:08.486Z,101504.50
2022-12-19T14:16:45.023Z,101506.31
2022-12-19T14:19:22.138Z,101495.63
2022-12-19T14:22:11.161Z,101498.19
2022-12-19T14:24:34.862Z,101492.66
2022-12-19T14:28:19.582Z,101499.59
2022-12-19T14:30:27.463Z,101498.00
2022-12-19T14:33:47.266Z,101504.72
2022-12-19T14:36:11.254Z,101504.72
2022-12-19T14:39:25.379Z,101498.97
2022-12-19T14:41:08.632Z,101499.06
2022-12-19T14:43:58.989Z,101492.88
2022-12-19T14:52:34.728Z,101498.53
2022-12-19T14:54:01.421Z,101495.53
2022-12-19T14:54:32.220Z,101490.56
2022-12-19T14:56:16.053Z,101488.53
2022-12-19T14:58:54.942Z,101494.41
2022-12-19T15:01:10.280Z,101481.47
2022-12-19T15:03:39.737Z,101488.72
2022-12-19T15:07:05.758Z,101491.28
2022-12-19T15:09:34.215Z,101484.97
2022-12-19T15:12:56.509Z,101485.75
2022-12-19T15:14:59.917Z,101474.63
2022-12-19T15:17:26.530Z,101481.69
2022-12-19T15:19:52.890Z,101480.22
2022-12-19T15:22:19.325Z,101484.94
2022-12-19T15:24:45.707Z,101473.06
2022-12-19T15:27:13.153Z,101477.00
2022-12-19T15:29:42.431Z,101481.25
2022-12-19T15:32:15.677Z,101480.72
2022-12-19T15:34:50.547Z,101474.78
2022-12-19T15:37:17.860Z,101476.25
2022-12-19T15:39:44.193Z,101479.03
2022-12-19T15:42:15.483Z,101478.47
2022-12-19T15:44:41.827Z,101479.47
2022-12-19T15:47:15.047Z,101472.41
2022-12-19T15:49:41.438Z,101473.81
2022-12-19T15:52:15.606Z,101463.94
2022-12-19T15:54:50.698Z,101456.13
2022-12-19T15:57:17.452Z,101455.59
2022-12-19T15:59:43.990Z,101456.50
2022-12-19T16:02:21.472Z,101443.63
2022-12-19T16:04:48.330Z,101439.03
2022-12-19T16:07:15.477Z,101450.38
2022-12-19T16:09:47.551Z,101448.53
2022-12-19T16:12:18.438Z,101452.44
2022-12-19T16:14:44.951Z,101449.84
2022-12-19T16:17:18.757Z,101462.66
2022-12-19T16:19:45.131Z,101447.03
2022-12-19T16:22:15.436Z,101458.38
2022-12-19T16:24:41.763Z,101456.88
2022-12-19T16:27:09.514Z,101448.22
2022-12-19T16:29:40.801Z,101449.41
2022-12-19T16:32:11.841Z,101441.78
2022-12-19T16:34:41.070Z,101439.56
2022-12-19T16:37:07.400Z,101437.50
2022-12-19T16:39:34.288Z,101441.75
2022-12-19T16:42:00.616Z,101447.22
2022-12-19T16:44:26.978Z,101441.81
2022-12-19T16:46:53.379Z,101431.00
2022-12-19T16:49:20.130Z,101433.59
2022-12-19T16:51:46.468Z,101440.56
2022-12-19T16:54:12.932Z,101438.44
2022-12-19T16:56:40.646Z,101433.97
2022-12-19T16:59:14.443Z,101429.25
2022-12-19T17:01:42.561Z,101433.66
2022-12-19T17:04:11.344Z,101429.47
2022-12-19T17:06:41.108Z,101430.22
2022-12-19T17:09:15.566Z,101428.09
2022-12-19T17:11:44.648Z,101423.72
2022-12-19T17:14:14.456Z,101420.19
2022-12-19T17:16:40.868Z,101420.19
2022-12-19T17:19:08.407Z,101428.09
2022-12-19T17:21:37.685Z,101431.16
2022-12-19T17:24:05.563Z,101424.75
2022-12-19T17:26:31.998Z,101421.66
2022-12-19T17:28:58.325Z,101423.19
2022-12-19T17:31:26.536Z,101426.69
2022-12-19T17:33:54.002Z,101428.94
2022-12-19T17:36:26.026Z,101428.94
2022-12-19T17:38:54.067Z,101425.97
2022-12-19T17:41:20.393Z,101414.41
2022-12-19T17:43:46.726Z,101417.31
2022-12-19T17:46:19.414Z,101415.25
2022-12-19T17:48:46.164Z,101417.41
2022-12-19T17:51:12.481Z,101416.75
2022-12-19T17:53:38.813Z,101421.38
2022-12-19T17:56:05.167Z,101415.63
2022-12-19T17:58:31.593Z,101417.13
2022-12-19T18:00:57.984Z,101417.66
2022-12-19T18:03:24.964Z,101414.44
2022-12-19T18:05:52.214Z,101418.19
2022-12-19T18:08:22.801Z,101421.19
2022-12-19T18:10:56.935Z,101415.19
2022-12-19T18:13:23.861Z,101420.22
2022-12-19T18:15:50.240Z,101430.22
2022-12-19T18:18:19.497Z,101420.09
2022-12-19T18:20:46.059Z,101422.97
2022-12-19T18:23:18.738Z,101405.59
2022-12-19T18:25:45.071Z,101413.50
2022-12-19T18:28:11.401Z,101411.25
2022-12-19T18:30:37.906Z,101419.78
2022-12-19T18:33:05.282Z,101416.78
2022-12-19T18:35:32.542Z,101416.69
2022-12-19T18:37:59.200Z,101420.13
2022-12-19T18:40:31.180Z,101418.59
2022-12-19T18:42:58.015Z,101425.03
2022-12-19T18:45:34.077Z,101423.09
2022-12-19T18:48:00.525Z,101419.03
2022-12-19T18:50:26.935Z,101419.25
2022-12-19T18:52:53.285Z,101418.50
2022-12-19T18:55:20.426Z,101414.75
2022-12-19T18:57:46.750Z,101411.13
2022-12-19T19:00:16.975Z,101414.47
2022-12-19T19:02:57.046Z,101406.19
2022-12-19T19:05:24.573Z,101396.81
2022-12-19T19:07:50.938Z,101401.78
2022-12-19T19:10:18.088Z,101397.72
2022-12-19T19:12:54.331Z,101397.09
2022-12-19T19:15:21.110Z,101390.16
2022-12-19T19:17:48.244Z,101390.03
2022-12-19T19:20:14.584Z,101394.63
2022-12-19T19:22:41.508Z,101377.91
2022-12-19T19:25:07.985Z,101379.59
2022-12-19T19:27:34.321Z,101376.09
2022-12-19T19:30:00.653Z,101373.50
2022-12-19T19:32:27.061Z,101370.75
2022-12-19T19:34:55.517Z,101378.00
2022-12-19T19:37:21.852Z,101389.41
2022-12-19T19:39:48.186Z,101382.16
2022-12-19T19:42:14.655Z,101375.53
2022-12-19T19:44:40.995Z,101381.94
2022-12-19T19:47:07.335Z,101376.84
2022-12-19T19:49:36.639Z,101370.34
2022-12-19T19:52:03.505Z,101370.34
2022-12-19T19:54:30.409Z,101375.44
2022-12-19T19:56:56.719Z,101372.56
2022-12-19T19:59:23.068Z,101366.06
2022-12-19T20:01:54.089Z,101369.56
2022-12-19T20:04:20.719Z,101374.59
2022-12-19T20:06:47.169Z,101368.72
2022-12-19T20:09:13.508Z,101361.47
2022-12-19T20:11:39.882Z,101359.88
2022-12-19T20:14:06.213Z,101358.38
2022-12-19T20:16:32.818Z,101356.91
2022-12-19T20:18:59.619Z,101354.66
2022-12-19T20:21:26.054Z,101365.44
2022-12-19T20:23:52.390Z,101358.91
2022-12-19T20:26:18.714Z,101355.41
2022-12-19T20:28:48.823Z,101347.50
2022-12-19T20:31:16.841Z,101351.16
2022-12-19T20:33:43.236Z,101357.66
2022-12-19T20:36:10.078Z,101352.50
2022-12-19T20:38:36.467Z,101347.41
2022-12-19T20:41:02.828Z,101345.16
2022-12-19T20:43:29.170Z,101353.81
2022-12-19T20:46:02.110Z,101356.69
2022-12-19T20:48:28.549Z,101352.97
2022-12-19T20:50:55.547Z,101360.94
2022-12-19T20:53:21.862Z,101366.69
2022-12-19T20:55:57.537Z,101363.81
2022-12-19T20:58:24.693Z,101367.47
2022-12-19T21:00:53.962Z,101351.66
2022-12-19T21:03:29.351Z,101363.81
2022-12-19T21:05:59.296Z,101365.94
2022-12-19T21:08:25.634Z,101381.75
2022-12-19T21:10:52.044Z,101387.50
2022-12-19T21:13:18.362Z,101380.22
2022-12-19T21:15:44.785Z,101373.72
2022-12-19T21:18:11.184Z,101378.00
2022-12-19T21:20:38.019Z,101382.47
2022-12-19T21:23:04.589Z,101398.47
2022-12-19T21:25:30.959Z,101384.91
2022-12-19T21:28:00.996Z,101366.91
2022-12-19T21:30:27.336Z,101370.53
2022-12-19T21:32:53.742Z,101358.38
2022-12-19T21:35:20.132Z,101352.50
2022-12-19T21:37:50.079Z,101358.28
2022-12-19T21:40:16.782Z,101348.16
2022-12-19T21:42:43.159Z,101357.44
2022-12-19T21:45:09.800Z,101355.19
2022-12-19T21:47:39.186Z,101357.94
2022-12-19T21:50:09.085Z,101367.97
2022-12-19T21:52:35.480Z,101357.00
2022-12-19T21:55:01.820Z,101349.00
2022-12-19T21:57:28.145Z,101356.25
2022-12-19T21:59:54.534Z,101351.03
2022-12-19T22:02:21.094Z,101351.66
2022-12-19T22:04:48.338Z,101357.31
2022-12-19T22:07:14.924Z,101354.44
2022-12-19T22:09:41.480Z,101349.31
2022-12-19T22:12:08.798Z,101360.75
2022-12-19T22:14:35.141Z,101363.63
2022-12-19T22:17:01.500Z,101355.59
2022-12-19T22:19:27.850Z,101348.34
2022-12-19T22:21:54.166Z,101359.84
2022-12-19T22:24:20.500Z,101364.09
2022-12-19T22:26:46.840Z,101361.38
2022-12-19T22:29:13.878Z,101347.81
2022-12-19T22:31:40.708Z,101348.34
2022-12-19T22:34:07.899Z,101339.50
2022-12-19T22:36:34.754Z,101334.38
2022-12-19T22:39:01.653Z,101338.63
2022-12-19T22:41:28.023Z,101327.75
2022-12-19T22:43:54.466Z,101331.28
2022-12-19T22:46:26.219Z,101331.91
2022-12-19T22:48:52.843Z,101328.28
2022-12-19T22:51:19.429Z,101337.66
2022-12-19T22:53:45.995Z,101322.75
2022-12-19T22:56:18.429Z,101322.84
2022-12-19T22:58:45.167Z,101314.97
2022-12-19T23:01:12.401Z,101326.38
2022-12-19T23:03:38.853Z,101323.38
2022-12-19T23:06:05.313Z,101323.25
2022-12-19T23:08:31.652Z,101327.44
2022-12-19T23:10:58.043Z,101333.81
2022-12-19T23:13:24.448Z,101330.84
2022-12-19T23:15:50.799Z,101332.97
2022-12-19T23:18:17.145Z,101327.19
2022-12-19T23:20:43.492Z,101338.59
2022-12-19T23:23:10.040Z,101334.25
2022-12-19T23:25:39.458Z,101332.00
2022-12-19T23:28:06.251Z,101329.13
2022-12-19T23:30:32.753Z,101325.50
2022-12-19T23:33:00.744Z,101328.25
2022-12-19T23:35:27.324Z,101318.28
2022-12-19T23:37:53.701Z,101316.75
2022-12-19T23:40:20.059Z,101310.91
2022-12-19T23:42:46.408Z,101307.28
2022-12-19T23:45:12.896Z,101308.03
2022-12-19T23:47:40.191Z,101309.41
2022-12-19T23:50:06.805Z,101305.81
2022-12-19T23:52:33.127Z,101309.31
2022-12-19T23:54:59.763Z,101310.78
2022-12-19T23:57:26.094Z,101312.19
2022-12-19T23:59:52.432Z,101317.94
